Terminal Aerodrome Forecast
Issued by NWS

Home | Current Version | Previous Version | Text Only | Print | Product List | Glossary On
Versions: 1 2 3 4 5 6 7 8 9 10 11 12 13 14 15 16
000
FTPQ31 PGUM 211947 AAH
TAFKWA
TAF AMD
PKWA 211947Z 2120/2218 25011KT P6SM VCSH SCT008 BKN020 OVC080
      TEMPO 2120/2122 25015G25KT 2SM +SHRA SCT008 OVC015
     FM212200 VRB07KT 3SM +SHRA VCTS SCT008CB OVC015
     FM220700 17010KT P6SM VCSH SCT010 BKN030=

USA.gov is the U.S. government's official web portal to all federal, state and local government web resources and services.